Impacts METAR Board
IDs:

KGTR - Golden Triangle Arpt, MS, US

Updated at: 0300 UTC 23 Oct 2018
Potential Impact None Slight Moderate High
Time 22/15Z 22/16Z 22/17Z 22/18Z 22/19Z 22/20Z 22/21Z 22/22Z 22/23Z 23/00Z 23/01Z 23/02Z 23/03Z
Temp51 59 63 65 66 67 67 66 64 58 56 54 52
Dewpt42 43 40 41 43 43 44 45 47 50 50 50 50
Altim30.30 30.28 30.28 30.25 30.22 30.19 30.19 30.19 30.19 30.19 30.20 30.21 30.21
VIS10 10 10 10 10 10 10 10 10 10 10 10 10
CIG-- -- -- -- -- -- -- -- -- -- -- -- --
CoverCLRCLRCLRCLRCLRCLRCLRCLRCLRCLRCLRCLRCLR
FltCatVFRVFRVFRVFRVFRVFRVFRVFRVFRVFRVFRVFRVFR
WX--------------------------
WDir16015018080000140003000
WSpd3 4 3 5 3 6 5 3 0 0 3 0 0
WGst-- -- -- -- -- -- -- -- -- -- -- -- --
Raw hourly METARs
KGTR 221456Z 16003KT 10SM CLR 11/06 A3030 RMK AO2 SLP263 T01060056 51010
KGTR 221556Z 15004KT 10SM CLR 15/06 A3028 RMK AO2 SLP257 T01500061
KGTR 221656Z 18003KT 10SM CLR 17/04 A3028 RMK AO2 SLP254 T01720044
KGTR 221756Z 08005KT 10SM CLR 18/05 A3025 RMK AO2 SLP244 T01830050 10189 20022 58019
KGTR 221856Z VRB03KT 10SM CLR 19/06 A3022 RMK AO2 SLP234 T01890061
KGTR 221956Z VRB06KT 10SM CLR 19/06 A3019 RMK AO2 SLP226 T01940061
KGTR 222056Z VRB05KT 10SM CLR 19/07 A3019 RMK AO2 SLP226 T01940067 55018
KGTR 222156Z 14003KT 10SM CLR 19/07 A3019 RMK AO2 SLP226 T01890072
KGTR 222256Z 00000KT 10SM CLR 18/08 A3019 RMK AO2 SLP225 T01780083
KGTR 222356Z 00000KT 10SM CLR 14/10 A3019 RMK AO2 SLP224 T01440100 10200 20139 55002
KGTR 230056Z AUTO 03003KT 10SM CLR 13/10 A3020 RMK AO2 SLP227 T01330100
KGTR 230156Z AUTO 00000KT 10SM CLR 12/10 A3021 RMK AO2 SLP233 T01220100
KGTR 230256Z AUTO 00000KT 10SM CLR 11/10 A3021 RMK AO2 SLP232 T01110100 51008



Page loaded:  03:27 UTC  |   08:27 PM Pacific  |   09:27 PM Mountain  |   10:27 PM Central  |   11:27 PM Eastern

 

ADVISORIES

FORECASTS

FORECASTS

OBSERVATIONS

USER TOOLS

ABOUT US